Time;durP1;ratioP1;P1;durP2;ratioP2;P2;SDS_P1;SDS_P2;PMS_P1;PMS_P2;Temp;Humidity;BMP_temperature;BMP_pressure;BME280_temperature;BME280_humidity;BME280_pressure;Samples;Min_cycle;Max_cycle;Signal;HPM_P1;HPM_P2
2021/12/15 00:02:18;;;;;;;;;;;9.80;99.90;;;;;;5115869;28;19915;-69
2021/12/15 00:04:44;;;;;;;;;;;9.80;99.90;;;;;;5119954;27;20362;-69
2021/12/15 00:07:12;;;;;;;;;;;9.80;99.90;;;;;;5119785;27;19915;-69
2021/12/15 00:09:38;;;;;;;;;;;9.80;99.90;;;;;;5113207;27;19919;-68
2021/12/15 00:12:04;;;;;;;;;;;9.80;99.90;;;;;;5120210;27;19922;-70
2021/12/15 00:14:31;;;;;;;;;;;9.90;99.90;;;;;;5134955;27;19938;-69
2021/12/15 00:16:57;;;;;;;;;;;9.90;99.90;;;;;;5120021;27;19922;-69
2021/12/15 00:19:23;;;;;;;;;;;9.90;99.90;;;;;;5119078;27;19993;-70
2021/12/15 00:21:48;;;;;;;;;;;9.80;99.90;;;;;;5119432;27;20361;-66
2021/12/15 00:24:13;;;;;;;;;;;9.90;99.90;;;;;;5113707;27;19965;-69
2021/12/15 00:26:39;;;;;;;;;;;9.90;99.90;;;;;;5119465;27;19926;-68
2021/12/15 00:29:06;;;;;;;;;;;9.90;99.90;;;;;;5119195;27;19923;-69
2021/12/15 00:31:32;;;;;;;;;;;9.90;99.90;;;;;;5110750;27;19915;-68
2021/12/15 00:33:58;;;;;;;;;;;9.90;99.90;;;;;;5102142;27;19915;-68
2021/12/15 00:36:24;;;;;;;;;;;9.90;99.90;;;;;;5116068;27;19998;-68
2021/12/15 00:38:49;;;;;;;;;;;9.90;99.90;;;;;;5119078;27;20013;-67
2021/12/15 00:41:15;;;;;;;;;;;9.90;99.90;;;;;;5119507;27;19922;-69
2021/12/15 00:43:40;;;;;;;;;;;9.90;99.90;;;;;;5118704;27;19960;-68
2021/12/15 00:46:06;;;;;;;;;;;9.90;99.90;;;;;;5119258;27;19973;-68
2021/12/15 00:48:32;;;;;;;;;;;9.80;99.90;;;;;;5118920;27;19915;-68
2021/12/15 00:50:58;;;;;;;;;;;9.90;99.90;;;;;;5118465;27;19926;-69
2021/12/15 00:53:23;;;;;;;;;;;9.90;99.90;;;;;;5108382;27;19915;-68
2021/12/15 00:55:52;;;;;;;;;;;9.90;99.90;;;;;;5118833;27;20300;-68
2021/12/15 00:58:18;;;;;;;;;;;9.90;99.90;;;;;;5118930;27;20365;-68
2021/12/15 01:00:45;;;;;;;;;;;9.90;99.90;;;;;;5100992;27;19923;-68
2021/12/15 01:03:10;;;;;;;;;;;9.90;99.90;;;;;;5118371;27;19962;-70
2021/12/15 01:05:37;;;;;;;;;;;9.90;99.90;;;;;;5117097;27;20015;-69
2021/12/15 01:08:05;;;;;;;;;;;9.90;99.90;;;;;;5118560;27;19915;-69
2021/12/15 01:10:45;;;;;;;;;;;9.90;99.90;;;;;;5118000;27;19919;-68
2021/12/15 01:21:14;;;;;;;;;;;9.90;99.90;;;;;;5118965;27;19984;-68
2021/12/15 01:23:40;;;;;;;;;;;9.90;99.90;;;;;;5101533;27;19922;-69
2021/12/15 01:26:08;;;;;;;;;;;9.90;99.90;;;;;;5117806;27;19915;-68
2021/12/15 01:28:33;;;;;;;;;;;9.80;99.90;;;;;;5118089;27;19922;-67
2021/12/15 01:30:59;;;;;;;;;;;9.80;99.90;;;;;;5118142;27;20366;-68
2021/12/15 01:33:25;;;;;;;;;;;9.90;99.90;;;;;;5118415;27;19920;-70
2021/12/15 01:36:22;;;;;;;;;;;9.80;99.90;;;;;;5118464;27;19940;-68
2021/12/15 01:38:47;;;;;;;;;;;9.90;99.90;;;;;;5113820;27;20002;-66
2021/12/15 01:41:20;;;;;;;;;;;9.90;99.90;;;;;;5116595;27;20007;-68
2021/12/15 01:49:08;;;;;;;;;;;9.90;99.90;;;;;;5116064;27;20374;-68
2021/12/15 01:51:34;;;;;;;;;;;9.90;99.90;;;;;;5115674;27;20312;-68
2021/12/15 01:53:59;;;;;;;;;;;9.90;99.90;;;;;;5117899;27;19941;-69
2021/12/15 01:56:25;;;;;;;;;;;9.90;99.90;;;;;;5117727;27;19964;-67
2021/12/15 01:58:51;;;;;;;;;;;9.90;99.90;;;;;;5117073;27;20424;-70
2021/12/15 02:01:16;;;;;;;;;;;9.80;99.90;;;;;;5114772;27;19958;-66
2021/12/15 02:03:42;;;;;;;;;;;9.90;99.90;;;;;;5117773;27;19968;-68
2021/12/15 02:06:08;;;;;;;;;;;9.80;99.90;;;;;;5096738;28;20060;-68
2021/12/15 02:08:34;;;;;;;;;;;9.90;99.90;;;;;;5112246;27;19919;-67
2021/12/15 02:11:00;;;;;;;;;;;9.90;99.90;;;;;;5117839;27;20032;-68
2021/12/15 02:13:25;;;;;;;;;;;9.80;99.90;;;;;;5118020;27;19919;-68
2021/12/15 02:15:52;;;;;;;;;;;9.80;99.90;;;;;;5100451;27;19915;-70
2021/12/15 02:18:20;;;;;;;;;;;9.80;99.90;;;;;;5117684;27;19919;-67
2021/12/15 02:20:47;;;;;;;;;;;9.90;99.90;;;;;;5117554;27;20392;-68
2021/12/15 02:23:15;;;;;;;;;;;9.90;99.90;;;;;;5117401;27;20331;-68
2021/12/15 02:25:41;;;;;;;;;;;9.90;99.90;;;;;;5117129;27;19916;-67
2021/12/15 02:28:08;;;;;;;;;;;9.90;99.90;;;;;;5100012;27;19923;-66
2021/12/15 02:38:31;;;;;;;;;;;9.90;99.90;;;;;;5097332;27;19985;-69
2021/12/15 02:41:08;;;;;;;;;;;9.90;99.90;;;;;;5117255;27;19915;-69
2021/12/15 02:43:33;;;;;;;;;;;9.90;99.90;;;;;;5117296;27;19941;-68
2021/12/15 02:45:59;;;;;;;;;;;9.90;99.90;;;;;;5115254;27;19919;-67
2021/12/15 02:48:25;;;;;;;;;;;9.90;99.90;;;;;;5114683;27;19920;-68
2021/12/15 02:50:51;;;;;;;;;;;9.90;99.90;;;;;;5099881;27;19919;-69
2021/12/15 02:53:17;;;;;;;;;;;9.80;99.90;;;;;;5098519;27;19916;-67
2021/12/15 02:55:42;;;;;;;;;;;9.90;99.90;;;;;;5116375;27;20388;-67
2021/12/15 02:58:08;;;;;;;;;;;9.90;99.90;;;;;;5098550;27;19919;-69
2021/12/15 03:00:56;;;;;;;;;;;9.90;99.90;;;;;;5129808;27;19920;-69
2021/12/15 03:03:53;;;;;;;;;;;9.90;99.90;;;;;;5113630;27;19915;-68
2021/12/15 03:06:23;;;;;;;;;;;9.90;99.90;;;;;;5111194;27;19923;-67
2021/12/15 03:08:57;;;;;;;;;;;9.90;99.90;;;;;;5128057;27;20322;-69
2021/12/15 03:17:00;;;;;;;;;;;9.80;99.90;;;;;;5109468;27;19921;-69
2021/12/15 03:19:26;;;;;;;;;;;9.80;99.90;;;;;;5115588;27;20429;-69
2021/12/15 03:21:52;;;;;;;;;;;9.80;99.90;;;;;;5116969;27;19916;-68
2021/12/15 03:24:20;;;;;;;;;;;9.80;99.90;;;;;;5098495;27;20006;-68
2021/12/15 03:26:59;;;;;;;;;;;9.80;99.90;;;;;;5110268;27;19938;-68
2021/12/15 03:35:06;;;;;;;;;;;9.80;99.90;;;;;;5116328;27;19923;-68
2021/12/15 03:37:34;;;;;;;;;;;9.80;99.90;;;;;;5111422;27;19915;-68
2021/12/15 03:40:08;;;;;;;;;;;9.80;99.90;;;;;;5115723;27;19954;-67
2021/12/15 03:42:35;;;;;;;;;;;9.80;99.90;;;;;;5116456;27;19969;-68
2021/12/15 03:45:03;;;;;;;;;;;9.80;99.90;;;;;;5111827;27;20013;-68
2021/12/15 03:47:31;;;;;;;;;;;9.80;99.90;;;;;;5090248;28;20281;-67
2021/12/15 03:49:57;;;;;;;;;;;9.80;99.90;;;;;;5114807;27;19927;-69
2021/12/15 03:52:23;;;;;;;;;;;9.80;99.90;;;;;;5115493;28;20285;-68
2021/12/15 03:54:48;;;;;;;;;;;9.80;99.90;;;;;;5115515;28;20346;-68
2021/12/15 03:57:14;;;;;;;;;;;9.80;99.90;;;;;;5115788;28;19922;-68
2021/12/15 03:59:42;;;;;;;;;;;9.80;99.90;;;;;;5098212;27;19920;-68
2021/12/15 04:02:10;;;;;;;;;;;9.80;99.90;;;;;;5114953;28;19997;-67
2021/12/15 04:04:35;;;;;;;;;;;9.70;99.90;;;;;;5115429;28;19919;-67
2021/12/15 04:07:01;;;;;;;;;;;9.80;99.90;;;;;;5111026;28;20327;-69
2021/12/15 04:09:27;;;;;;;;;;;9.80;99.90;;;;;;5115136;28;20380;-69
2021/12/15 04:12:00;;;;;;;;;;;9.70;99.90;;;;;;5112128;28;19915;-69
2021/12/15 04:14:31;;;;;;;;;;;9.70;99.90;;;;;;5114991;28;19915;-68
2021/12/15 04:17:05;;;;;;;;;;;9.70;99.90;;;;;;5115201;28;19915;-67
2021/12/15 04:19:32;;;;;;;;;;;9.70;99.90;;;;;;5123677;28;19915;-67
2021/12/15 04:21:59;;;;;;;;;;;9.70;99.90;;;;;;5115208;28;19920;-67
2021/12/15 04:24:26;;;;;;;;;;;9.70;99.90;;;;;;5115058;28;19965;-69
2021/12/15 04:26:52;;;;;;;;;;;9.70;99.90;;;;;;5113602;28;19962;-68
2021/12/15 04:29:18;;;;;;;;;;;9.70;99.90;;;;;;5113426;28;19919;-69
2021/12/15 04:31:47;;;;;;;;;;;9.70;99.90;;;;;;5097354;28;20339;-70
2021/12/15 04:34:12;;;;;;;;;;;9.70;99.90;;;;;;5094878;27;20266;-67
2021/12/15 04:36:40;;;;;;;;;;;9.70;99.90;;;;;;5094896;28;19915;-69
2021/12/15 04:39:08;;;;;;;;;;;9.70;99.90;;;;;;5095768;28;20371;-70
2021/12/15 04:41:34;;;;;;;;;;;9.70;99.90;;;;;;5114284;28;20042;-70
2021/12/15 04:44:01;;;;;;;;;;;9.70;99.90;;;;;;5112748;28;20010;-68
2021/12/15 04:46:32;;;;;;;;;;;9.70;99.90;;;;;;5114920;28;19916;-67
2021/12/15 04:48:58;;;;;;;;;;;9.70;99.90;;;;;;5113716;27;19919;-69
2021/12/15 04:51:24;;;;;;;;;;;9.70;99.90;;;;;;5114018;27;19998;-69
2021/12/15 04:53:50;;;;;;;;;;;9.70;99.90;;;;;;5123881;27;19915;-69
2021/12/15 04:56:15;;;;;;;;;;;9.70;99.90;;;;;;5120931;27;19915;-69
2021/12/15 04:58:41;;;;;;;;;;;9.70;99.90;;;;;;5117963;27;19963;-68
2021/12/15 05:01:08;;;;;;;;;;;9.70;99.90;;;;;;5118157;27;19915;-66
2021/12/15 05:03:34;;;;;;;;;;;9.70;99.90;;;;;;5118711;27;19926;-68
2021/12/15 05:05:59;;;;;;;;;;;9.70;99.90;;;;;;5118246;27;19998;-69
2021/12/15 05:08:25;;;;;;;;;;;9.70;99.90;;;;;;5112262;28;19939;-70
2021/12/15 05:10:54;;;;;;;;;;;9.70;99.90;;;;;;5109807;27;20319;-68
2021/12/15 05:13:20;;;;;;;;;;;9.70;99.90;;;;;;5118273;27;19915;-69
2021/12/15 05:15:45;;;;;;;;;;;9.70;99.90;;;;;;5117816;27;19964;-69
2021/12/15 05:18:11;;;;;;;;;;;9.70;99.90;;;;;;5101199;27;19915;-71
2021/12/15 05:20:39;;;;;;;;;;;9.70;99.90;;;;;;5117946;27;20006;-68
2021/12/15 05:23:05;;;;;;;;;;;9.70;99.90;;;;;;5118909;27;20361;-70
2021/12/15 05:25:31;;;;;;;;;;;9.70;99.90;;;;;;5116812;27;19960;-69
2021/12/15 05:27:56;;;;;;;;;;;9.70;99.90;;;;;;5118327;27;20331;-69
2021/12/15 05:30:23;;;;;;;;;;;9.70;99.90;;;;;;5117807;27;19923;-68
2021/12/15 05:32:48;;;;;;;;;;;9.70;99.90;;;;;;5101752;27;19915;-67
2021/12/15 05:35:20;;;;;;;;;;;9.70;99.90;;;;;;5118132;27;19915;-68
2021/12/15 05:37:46;;;;;;;;;;;9.70;99.90;;;;;;5118685;27;19922;-67
2021/12/15 05:40:13;;;;;;;;;;;9.70;99.90;;;;;;5117156;27;19961;-71
2021/12/15 05:42:38;;;;;;;;;;;9.70;99.90;;;;;;5109488;27;20370;-68
2021/12/15 05:45:04;;;;;;;;;;;9.70;99.90;;;;;;5117290;27;20011;-67
2021/12/15 05:47:30;;;;;;;;;;;9.70;99.90;;;;;;5114248;27;19964;-69
2021/12/15 05:49:55;;;;;;;;;;;9.70;99.90;;;;;;5117457;27;19919;-69
2021/12/15 05:52:21;;;;;;;;;;;9.70;99.90;;;;;;5117121;27;19922;-67
2021/12/15 05:54:47;;;;;;;;;;;9.70;99.90;;;;;;5116598;27;19915;-68
2021/12/15 05:57:12;;;;;;;;;;;9.70;99.90;;;;;;5115567;27;19915;-68
2021/12/15 05:59:39;;;;;;;;;;;9.70;99.90;;;;;;5098251;27;19968;-69
2021/12/15 06:02:05;;;;;;;;;;;9.60;99.90;;;;;;5114982;27;19923;-68
2021/12/15 06:04:31;;;;;;;;;;;9.70;99.90;;;;;;5115280;27;19916;-67
2021/12/15 06:06:57;;;;;;;;;;;9.60;99.90;;;;;;5117291;27;20251;-70
2021/12/15 06:09:22;;;;;;;;;;;9.60;99.90;;;;;;5116989;27;19919;-69
2021/12/15 06:11:51;;;;;;;;;;;9.60;99.90;;;;;;5115682;27;20366;-69
2021/12/15 06:14:23;;;;;;;;;;;9.60;99.90;;;;;;5116465;27;20384;-69
2021/12/15 06:16:52;;;;;;;;;;;9.60;99.90;;;;;;5116121;27;20269;-70
2021/12/15 06:19:18;;;;;;;;;;;9.60;99.90;;;;;;5116540;27;19999;-69
2021/12/15 06:21:43;;;;;;;;;;;9.70;99.90;;;;;;5115792;27;19998;-69
2021/12/15 06:24:08;;;;;;;;;;;9.60;99.90;;;;;;5116651;27;19916;-67
2021/12/15 06:26:34;;;;;;;;;;;9.70;99.90;;;;;;5113931;27;20006;-69
2021/12/15 06:29:00;;;;;;;;;;;9.60;99.90;;;;;;5115889;27;20017;-69
2021/12/15 06:31:27;;;;;;;;;;;9.60;99.90;;;;;;5115425;27;20010;-69
2021/12/15 06:33:52;;;;;;;;;;;9.70;99.90;;;;;;5116510;27;19915;-68
2021/12/15 06:36:21;;;;;;;;;;;9.60;99.90;;;;;;5099106;27;19922;-69
2021/12/15 06:38:47;;;;;;;;;;;9.60;99.90;;;;;;5098305;27;19916;-69
2021/12/15 06:41:13;;;;;;;;;;;9.60;99.90;;;;;;5114500;27;20002;-70
2021/12/15 06:43:39;;;;;;;;;;;9.60;99.90;;;;;;5115210;27;19999;-70
2021/12/15 06:57:31;;;;;;;;;;;9.60;99.90;;;;;;5107350;27;20380;-68
2021/12/15 06:59:57;;;;;;;;;;;9.60;99.90;;;;;;5116312;27;20018;-68
2021/12/15 07:02:23;;;;;;;;;;;9.60;99.90;;;;;;5116013;27;20034;-71
2021/12/15 07:04:48;;;;;;;;;;;9.60;99.90;;;;;;5098829;27;20005;-67
2021/12/15 07:07:14;;;;;;;;;;;9.60;99.90;;;;;;5115594;27;19915;-67
2021/12/15 07:09:39;;;;;;;;;;;9.60;99.90;;;;;;5108383;28;20506;-67
2021/12/15 07:12:05;;;;;;;;;;;9.60;99.90;;;;;;5114875;27;19976;-69
2021/12/15 07:14:31;;;;;;;;;;;9.70;99.90;;;;;;5115013;27;20262;-69
2021/12/15 07:16:58;;;;;;;;;;;9.60;99.90;;;;;;5115478;27;19922;-68
2021/12/15 07:22:08;;;;;;;;;;;9.60;99.90;;;;;;5112890;27;20404;-70
2021/12/15 07:24:34;;;;;;;;;;;9.60;99.90;;;;;;5115545;27;20441;-69
2021/12/15 07:27:00;;;;;;;;;;;9.60;99.90;;;;;;5109508;27;19915;-68
2021/12/15 07:29:26;;;;;;;;;;;9.60;99.90;;;;;;5116087;27;19927;-69
2021/12/15 07:31:52;;;;;;;;;;;9.60;99.90;;;;;;5115060;27;19915;-68
2021/12/15 07:34:18;;;;;;;;;;;9.60;99.90;;;;;;5117695;27;20285;-68
2021/12/15 07:36:43;;;;;;;;;;;9.60;99.90;;;;;;5101159;27;20262;-68
2021/12/15 07:39:11;;;;;;;;;;;9.60;99.90;;;;;;5115690;27;19922;-69
2021/12/15 07:41:47;;;;;;;;;;;9.60;99.90;;;;;;5098377;27;19923;-70
2021/12/15 07:44:13;;;;;;;;;;;9.60;99.90;;;;;;5115291;27;20001;-69
2021/12/15 07:46:39;;;;;;;;;;;9.60;99.90;;;;;;5114937;28;19955;-68
2021/12/15 07:49:04;;;;;;;;;;;9.60;99.90;;;;;;5114340;28;20423;-69
2021/12/15 07:51:30;;;;;;;;;;;9.60;99.90;;;;;;5115416;27;19976;-67
2021/12/15 07:53:55;;;;;;;;;;;9.60;99.90;;;;;;5113897;27;19920;-68
2021/12/15 07:56:20;;;;;;;;;;;9.50;99.90;;;;;;5114318;28;19916;-69
2021/12/15 07:58:46;;;;;;;;;;;9.60;99.90;;;;;;5097316;28;19919;-68
2021/12/15 08:01:11;;;;;;;;;;;9.60;99.90;;;;;;5112860;28;20184;-68
2021/12/15 08:03:38;;;;;;;;;;;9.60;99.90;;;;;;5114782;28;20389;-69
2021/12/15 08:06:03;;;;;;;;;;;9.60;99.90;;;;;;5112778;28;19915;-68
2021/12/15 08:08:29;;;;;;;;;;;9.60;99.90;;;;;;5114430;28;20426;-67
2021/12/15 08:10:57;;;;;;;;;;;9.60;99.90;;;;;;5114665;28;20374;-68
2021/12/15 08:13:23;;;;;;;;;;;9.60;99.90;;;;;;5114395;28;19915;-69
2021/12/15 08:15:49;;;;;;;;;;;9.60;99.90;;;;;;5124849;27;19922;-68
2021/12/15 08:18:14;;;;;;;;;;;9.70;99.90;;;;;;5113380;28;19919;-70
2021/12/15 08:20:41;;;;;;;;;;;9.60;99.90;;;;;;5112916;28;19930;-70
2021/12/15 08:23:07;;;;;;;;;;;9.60;99.90;;;;;;5113694;28;20334;-69
2021/12/15 08:25:35;;;;;;;;;;;9.70;99.90;;;;;;5112948;27;19964;-70
2021/12/15 08:28:00;;;;;;;;;;;9.70;99.90;;;;;;5119685;27;19922;-68
2021/12/15 08:30:28;;;;;;;;;;;9.70;99.90;;;;;;5112350;27;19919;-68
2021/12/15 08:32:54;;;;;;;;;;;9.70;99.90;;;;;;5119033;27;19968;-70
2021/12/15 08:35:21;;;;;;;;;;;9.70;99.90;;;;;;5118582;27;20376;-68
2021/12/15 08:37:47;;;;;;;;;;;9.70;99.90;;;;;;5118977;27;19915;-70
2021/12/15 08:40:12;;;;;;;;;;;9.70;99.90;;;;;;5117249;27;19922;-67
2021/12/15 08:42:38;;;;;;;;;;;9.70;99.90;;;;;;5098865;28;19994;-69
2021/12/15 08:45:04;;;;;;;;;;;9.80;99.90;;;;;;5111517;27;19915;-68
2021/12/15 08:47:30;;;;;;;;;;;9.80;99.90;;;;;;5118676;27;19915;-68
2021/12/15 08:50:08;;;;;;;;;;;9.80;99.90;;;;;;5118675;27;19926;-68
2021/12/15 08:52:34;;;;;;;;;;;9.80;99.90;;;;;;5116512;27;19998;-71
2021/12/15 08:54:59;;;;;;;;;;;9.80;99.90;;;;;;5116041;27;20424;-73
2021/12/15 08:57:25;;;;;;;;;;;9.80;99.90;;;;;;5113005;27;19937;-70
2021/12/15 08:59:51;;;;;;;;;;;9.90;99.90;;;;;;5111942;27;20014;-69
2021/12/15 09:02:18;;;;;;;;;;;9.90;99.90;;;;;;5109841;27;19933;-70
2021/12/15 09:04:43;;;;;;;;;;;9.90;99.90;;;;;;5116113;27;19923;-70
2021/12/15 09:07:09;;;;;;;;;;;9.90;99.90;;;;;;5116973;27;19916;-71
2021/12/15 09:09:34;;;;;;;;;;;9.90;99.90;;;;;;5117125;27;19927;-71
2021/12/15 09:12:02;;;;;;;;;;;9.90;99.90;;;;;;5121841;27;20010;-72
2021/12/15 09:14:27;;;;;;;;;;;9.90;99.90;;;;;;5117033;27;19919;-71
2021/12/15 09:16:54;;;;;;;;;;;9.90;99.90;;;;;;5117414;27;19963;-71
2021/12/15 09:19:19;;;;;;;;;;;9.90;99.90;;;;;;5117008;27;19923;-70
2021/12/15 09:21:46;;;;;;;;;;;9.90;99.90;;;;;;5114959;27;19919;-70
2021/12/15 09:24:13;;;;;;;;;;;10.00;99.90;;;;;;5116321;27;19919;-70
2021/12/15 09:26:39;;;;;;;;;;;10.00;99.90;;;;;;5111234;27;19930;-70
2021/12/15 09:29:05;;;;;;;;;;;10.00;99.90;;;;;;5117035;27;19927;-70
2021/12/15 09:31:30;;;;;;;;;;;10.00;99.90;;;;;;5117609;27;19916;-70
2021/12/15 09:33:57;;;;;;;;;;;10.10;99.90;;;;;;5117103;27;19915;-68
2021/12/15 09:36:23;;;;;;;;;;;10.10;99.90;;;;;;5111511;27;20275;-71
2021/12/15 09:38:50;;;;;;;;;;;10.10;99.90;;;;;;5096835;28;19919;-70
2021/12/15 09:41:17;;;;;;;;;;;10.10;99.90;;;;;;5115847;27;19926;-71
2021/12/15 09:43:44;;;;;;;;;;;10.10;99.90;;;;;;5117984;27;19923;-72
2021/12/15 09:46:15;;;;;;;;;;;10.20;99.90;;;;;;5117540;27;19915;-70
2021/12/15 10:05:25;;;;;;;;;;;10.10;99.90;;;;;;5115368;27;20374;-71
2021/12/15 10:18:37;;;;;;;;;;;10.40;99.90;;;;;;5104522;27;20345;-69
2021/12/15 10:21:03;;;;;;;;;;;10.60;99.90;;;;;;5115225;27;19922;-69
2021/12/15 10:23:36;;;;;;;;;;;10.60;99.90;;;;;;5116367;27;20281;-69
2021/12/15 10:26:03;;;;;;;;;;;10.60;99.90;;;;;;5114852;27;19937;-69
2021/12/15 10:28:29;;;;;;;;;;;10.60;99.90;;;;;;5113492;27;20277;-72
2021/12/15 10:30:57;;;;;;;;;;;10.50;99.90;;;;;;5109604;27;20014;-71
2021/12/15 10:33:22;;;;;;;;;;;10.40;99.90;;;;;;5113643;27;20429;-71
2021/12/15 10:35:48;;;;;;;;;;;10.40;99.90;;;;;;5115794;27;19927;-70
2021/12/15 10:38:17;;;;;;;;;;;10.30;99.90;;;;;;5114828;27;19926;-70
2021/12/15 10:40:45;;;;;;;;;;;10.30;99.90;;;;;;5115139;27;19922;-72
2021/12/15 10:43:10;;;;;;;;;;;10.30;99.90;;;;;;5116390;27;19923;-70
2021/12/15 10:45:44;;;;;;;;;;;10.40;99.90;;;;;;5097417;27;20084;-71
2021/12/15 10:48:20;;;;;;;;;;;10.40;99.90;;;;;;5097264;27;19915;-70
2021/12/15 10:50:47;;;;;;;;;;;10.50;99.90;;;;;;5114981;27;19923;-71
2021/12/15 10:53:12;;;;;;;;;;;10.50;99.90;;;;;;5109108;27;19923;-69
2021/12/15 10:55:38;;;;;;;;;;;10.60;99.90;;;;;;5112150;27;19915;-70
2021/12/15 10:58:24;;;;;;;;;;;10.60;99.90;;;;;;5110219;28;19915;-69
2021/12/15 11:00:50;;;;;;;;;;;10.60;99.90;;;;;;5079529;28;20038;-71
2021/12/15 11:03:23;;;;;;;;;;;10.70;99.90;;;;;;5099562;27;20052;-69
2021/12/15 11:05:49;;;;;;;;;;;10.70;99.90;;;;;;5113349;27;19920;-69
2021/12/15 11:08:19;;;;;;;;;;;10.70;99.90;;;;;;5095200;28;20163;-68
2021/12/15 11:10:45;;;;;;;;;;;10.80;99.90;;;;;;5097812;27;20172;-70
2021/12/15 11:13:12;;;;;;;;;;;10.80;99.90;;;;;;5111969;27;20396;-68
2021/12/15 11:15:47;;;;;;;;;;;10.80;99.90;;;;;;5107001;27;19915;-69
2021/12/15 11:18:17;;;;;;;;;;;10.70;99.90;;;;;;5114958;27;19998;-69
2021/12/15 11:20:51;;;;;;;;;;;10.70;99.90;;;;;;5114920;27;19933;-69
2021/12/15 11:23:18;;;;;;;;;;;10.70;99.90;;;;;;5121134;27;20375;-72
2021/12/15 11:25:51;;;;;;;;;;;10.70;99.90;;;;;;5112697;27;19926;-69
2021/12/15 11:28:24;;;;;;;;;;;10.60;99.90;;;;;;5109252;27;19930;-71
2021/12/15 11:30:58;;;;;;;;;;;10.70;99.90;;;;;;5114609;27;20030;-68
2021/12/15 11:33:29;;;;;;;;;;;10.70;99.90;;;;;;5106710;27;20323;-70
2021/12/15 11:35:57;;;;;;;;;;;10.70;99.90;;;;;;5114072;27;19977;-71
2021/12/15 11:38:24;;;;;;;;;;;10.70;99.90;;;;;;5110016;27;19926;-69
2021/12/15 11:41:01;;;;;;;;;;;10.70;99.90;;;;;;5102886;28;20274;-68
2021/12/15 11:43:32;;;;;;;;;;;10.70;99.90;;;;;;5100254;27;19919;-71
2021/12/15 11:45:59;;;;;;;;;;;10.80;99.90;;;;;;5084253;28;19922;-70
2021/12/15 11:48:26;;;;;;;;;;;10.80;99.90;;;;;;5098561;28;19948;-72
2021/12/15 11:50:53;;;;;;;;;;;10.80;99.90;;;;;;5114149;28;19920;-70
2021/12/15 11:53:23;;;;;;;;;;;10.80;99.90;;;;;;5114398;27;19915;-70
2021/12/15 11:55:48;;;;;;;;;;;10.80;99.90;;;;;;5114029;27;20274;-70
2021/12/15 11:58:14;;;;;;;;;;;10.90;99.90;;;;;;5113307;28;19915;-72
2021/12/15 12:00:40;;;;;;;;;;;10.90;99.90;;;;;;5107347;28;19916;-73
2021/12/15 12:03:12;;;;;;;;;;;10.90;99.90;;;;;;5112937;28;19923;-71
2021/12/15 12:05:38;;;;;;;;;;;10.90;99.90;;;;;;5115110;28;19963;-71
2021/12/15 12:08:07;;;;;;;;;;;10.90;99.90;;;;;;5114414;28;19967;-71
2021/12/15 12:10:45;;;;;;;;;;;10.90;99.90;;;;;;5113384;28;20410;-70
2021/12/15 12:13:22;;;;;;;;;;;10.90;99.90;;;;;;5113539;28;19922;-70
2021/12/15 12:15:49;;;;;;;;;;;10.90;99.90;;;;;;5107263;28;19915;-70
2021/12/15 12:18:21;;;;;;;;;;;10.90;99.90;;;;;;5114197;28;19940;-69
2021/12/15 12:20:51;;;;;;;;;;;10.90;99.90;;;;;;5117575;28;20339;-69
2021/12/15 12:23:18;;;;;;;;;;;10.90;99.90;;;;;;5127670;28;20076;-69
2021/12/15 12:25:47;;;;;;;;;;;10.90;99.90;;;;;;5127783;27;19961;-70
2021/12/15 12:28:16;;;;;;;;;;;10.90;99.90;;;;;;5114090;28;19947;-71
2021/12/15 12:30:43;;;;;;;;;;;10.90;99.90;;;;;;5114428;28;20416;-70
2021/12/15 12:33:10;;;;;;;;;;;10.90;99.90;;;;;;5115033;28;19962;-70
2021/12/15 12:35:55;;;;;;;;;;;10.90;99.90;;;;;;5114365;28;20283;-69
2021/12/15 12:38:25;;;;;;;;;;;10.90;99.90;;;;;;5115001;28;19915;-71
2021/12/15 12:40:59;;;;;;;;;;;10.90;99.90;;;;;;5103146;27;19919;-70
2021/12/15 12:43:31;;;;;;;;;;;10.80;99.90;;;;;;5099898;28;19919;-70
2021/12/15 12:46:07;;;;;;;;;;;10.80;99.90;;;;;;5113363;28;20006;-74
2021/12/15 12:59:29;;;;;;;;;;;10.70;99.90;;;;;;5101566;28;20396;-70
2021/12/15 13:01:55;;;;;;;;;;;10.80;99.90;;;;;;5103044;27;20012;-69
2021/12/15 13:04:21;;;;;;;;;;;10.70;99.90;;;;;;5110555;28;20322;-71
2021/12/15 13:06:46;;;;;;;;;;;10.80;99.90;;;;;;5113724;28;19956;-72
2021/12/15 13:09:16;;;;;;;;;;;10.70;99.90;;;;;;5100269;28;20281;-69
2021/12/15 13:11:46;;;;;;;;;;;10.70;99.90;;;;;;5111913;27;19916;-70
2021/12/15 13:14:13;;;;;;;;;;;10.70;99.90;;;;;;5117232;27;20000;-69
2021/12/15 13:16:44;;;;;;;;;;;10.70;99.90;;;;;;5100154;28;19915;-68
2021/12/15 13:19:15;;;;;;;;;;;10.60;99.90;;;;;;5113553;27;19958;-69
2021/12/15 13:21:48;;;;;;;;;;;10.60;99.90;;;;;;5117853;27;20013;-70
2021/12/15 13:28:40;;;;;;;;;;;10.60;99.90;;;;;;5117601;27;19915;-70
2021/12/15 13:30:03;;;;;;;;;;;10.60;99.90;;;;;;5101973;27;20282;-69
2021/12/15 13:32:31;;;;;;;;;;;10.60;99.90;;;;;;5100667;27;19915;-71
2021/12/15 13:34:56;;;;;;;;;;;10.60;99.90;;;;;;5100453;27;19960;-71
2021/12/15 13:37:40;;;;;;;;;;;10.60;99.90;;;;;;5114848;27;19919;-72
2021/12/15 13:40:10;;;;;;;;;;;10.60;99.90;;;;;;5114090;27;19923;-71
2021/12/15 13:42:37;;;;;;;;;;;10.60;99.90;;;;;;5094017;27;19936;-71
2021/12/15 13:45:03;;;;;;;;;;;10.60;99.90;;;;;;5115690;27;19915;-68
2021/12/15 13:47:29;;;;;;;;;;;10.60;99.90;;;;;;5114513;27;20282;-69
2021/12/15 13:49:57;;;;;;;;;;;10.60;99.90;;;;;;5113643;27;19919;-70
2021/12/15 13:52:27;;;;;;;;;;;10.60;99.90;;;;;;5116651;27;20011;-71
2021/12/15 13:54:54;;;;;;;;;;;10.60;99.90;;;;;;5114602;27;20747;-69
2021/12/15 13:57:31;;;;;;;;;;;10.50;99.90;;;;;;5117189;27;19915;-73
2021/12/15 14:00:03;;;;;;;;;;;10.50;99.90;;;;;;5104193;27;20001;-69
2021/12/15 14:02:33;;;;;;;;;;;10.60;99.90;;;;;;5117086;27;19963;-70
2021/12/15 14:05:06;;;;;;;;;;;10.50;99.90;;;;;;5116559;27;19927;-71
2021/12/15 14:07:32;;;;;;;;;;;10.40;99.90;;;;;;5118631;27;19923;-70
2021/12/15 14:09:59;;;;;;;;;;;10.30;99.90;;;;;;5115876;27;20260;-70
2021/12/15 14:12:44;;;;;;;;;;;10.30;99.90;;;;;;5100354;27;19919;-70
2021/12/15 14:15:09;;;;;;;;;;;10.30;99.90;;;;;;5116334;27;19915;-69
2021/12/15 14:17:35;;;;;;;;;;;10.20;99.90;;;;;;5103839;27;19922;-70
2021/12/15 14:20:00;;;;;;;;;;;10.20;99.90;;;;;;5105673;27;20373;-71
2021/12/15 14:22:26;;;;;;;;;;;10.20;99.90;;;;;;5115618;27;20278;-70
2021/12/15 14:24:54;;;;;;;;;;;10.10;99.90;;;;;;5116430;27;19964;-70
2021/12/15 14:27:21;;;;;;;;;;;10.10;99.90;;;;;;5111663;27;19916;-70
2021/12/15 14:29:47;;;;;;;;;;;10.00;99.90;;;;;;5108003;27;19919;-70
2021/12/15 14:32:13;;;;;;;;;;;10.00;99.90;;;;;;5115905;27;19923;-69
2021/12/15 14:34:39;;;;;;;;;;;10.00;99.90;;;;;;5115887;27;20414;-70
2021/12/15 14:37:07;;;;;;;;;;;10.00;99.90;;;;;;5116204;27;19915;-69
2021/12/15 14:39:35;;;;;;;;;;;10.00;99.90;;;;;;5116219;27;19922;-69
2021/12/15 14:42:03;;;;;;;;;;;10.00;99.90;;;;;;5114739;27;19915;-70
2021/12/15 14:44:30;;;;;;;;;;;9.90;99.90;;;;;;5113470;27;19915;-71
2021/12/15 14:46:57;;;;;;;;;;;9.90;99.90;;;;;;5112395;27;20259;-69
2021/12/15 14:49:23;;;;;;;;;;;9.80;99.90;;;;;;5111052;27;19934;-70
2021/12/15 14:51:50;;;;;;;;;;;9.80;99.90;;;;;;5107427;28;19915;-69
2021/12/15 14:54:20;;;;;;;;;;;9.80;99.90;;;;;;5098231;27;19923;-70
2021/12/15 14:56:51;;;;;;;;;;;9.80;99.90;;;;;;5099380;27;20362;-70
2021/12/15 14:59:18;;;;;;;;;;;9.80;99.90;;;;;;5110311;27;19915;-70
2021/12/15 15:01:46;;;;;;;;;;;9.80;99.90;;;;;;5109624;27;19920;-69
2021/12/15 15:04:13;;;;;;;;;;;9.70;99.90;;;;;;5109008;27;19923;-69
2021/12/15 15:06:40;;;;;;;;;;;9.70;99.90;;;;;;5113611;27;19965;-72
2021/12/15 15:09:27;;;;;;;;;;;9.70;99.90;;;;;;5107962;27;19923;-69
2021/12/15 15:12:02;;;;;;;;;;;9.80;99.90;;;;;;5109411;28;19915;-69
2021/12/15 15:14:29;;;;;;;;;;;9.80;99.90;;;;;;5115565;27;20281;-70
2021/12/15 15:16:55;;;;;;;;;;;9.80;99.90;;;;;;5111141;27;19915;-70
2021/12/15 15:19:22;;;;;;;;;;;9.80;99.90;;;;;;5092479;27;19923;-70
2021/12/15 15:21:48;;;;;;;;;;;9.70;99.90;;;;;;5108465;27;19965;-71
2021/12/15 15:24:29;;;;;;;;;;;9.70;99.90;;;;;;5110163;27;20215;-70
2021/12/15 15:27:11;;;;;;;;;;;9.70;99.90;;;;;;5110141;27;19916;-70
2021/12/15 15:29:38;;;;;;;;;;;9.70;99.90;;;;;;5091213;27;19927;-70
2021/12/15 15:32:24;;;;;;;;;;;9.70;99.90;;;;;;5106836;27;20354;-70
2021/12/15 15:34:51;;;;;;;;;;;9.70;99.90;;;;;;5099353;27;19922;-69
2021/12/15 15:37:19;;;;;;;;;;;9.70;99.90;;;;;;5107260;28;19941;-69
2021/12/15 15:39:45;;;;;;;;;;;9.70;99.90;;;;;;5111702;27;19916;-70
2021/12/15 15:42:21;;;;;;;;;;;9.70;99.90;;;;;;5112077;27;20418;-70
2021/12/15 15:44:46;;;;;;;;;;;9.70;99.90;;;;;;5110378;27;19922;-69
2021/12/15 15:47:17;;;;;;;;;;;9.70;99.90;;;;;;5107122;27;19959;-69
2021/12/15 15:49:50;;;;;;;;;;;9.60;99.90;;;;;;5094716;28;20382;-70
2021/12/15 15:52:15;;;;;;;;;;;9.60;99.90;;;;;;5111387;28;20018;-69
2021/12/15 15:54:41;;;;;;;;;;;9.60;99.90;;;;;;5114363;27;20009;-68
2021/12/15 15:57:07;;;;;;;;;;;9.60;99.90;;;;;;5106030;28;19916;-70
2021/12/15 15:59:32;;;;;;;;;;;9.60;99.90;;;;;;5105756;28;20400;-70